Terminal Aerodrome Forecast
Issued by NWS

Home | Current Version | Previous Version | Text Only | Print | Product List | Glossary On
Versions: 1 2 3 4 5 6 7 8 9 10 11 12 13 14 15
000
FTPA31 PHFO 281127
TAFHTO
TAF
PHTO 281127Z 2812/2912 23005KT P6SM VCSH SCT025 BKN050
     FM282000 12011KT P6SM VCSH SCT025 BKN045
     FM290500 23005KT P6SM VCSH SCT025 BKN045=

USA.gov is the U.S. government's official web portal to all federal, state and local government web resources and services.